sensor_id;sensor_type;location;lat;lon;timestamp;temperature;humidity
5415;DHT22;2730;51.512;7.504;2022-08-19T05:01:51;17.40;99.90
5415;DHT22;2730;51.512;7.504;2022-08-19T05:04:19;17.50;99.90
5415;DHT22;2730;51.512;7.504;2022-08-19T05:06:47;17.50;99.90
5415;DHT22;2730;51.512;7.504;2022-08-19T05:09:15;17.50;99.90
5415;DHT22;2730;51.512;7.504;2022-08-19T05:11:43;17.50;99.90
5415;DHT22;2730;51.512;7.504;2022-08-19T05:14:10;17.60;99.90
5415;DHT22;2730;51.512;7.504;2022-08-19T05:16:38;17.60;99.90
5415;DHT22;2730;51.512;7.504;2022-08-19T05:19:07;17.60;99.90
5415;DHT22;2730;51.512;7.504;2022-08-19T05:21:52;17.60;99.90
5415;DHT22;2730;51.512;7.504;2022-08-19T05:24:37;17.70;99.90
5415;DHT22;2730;51.512;7.504;2022-08-19T05:27:04;17.80;99.90
5415;DHT22;2730;51.512;7.504;2022-08-19T05:29:32;17.80;99.90
5415;DHT22;2730;51.512;7.504;2022-08-19T05:32:01;18.00;99.90
5415;DHT22;2730;51.512;7.504;2022-08-19T05:34:31;18.00;99.90
5415;DHT22;2730;51.512;7.504;2022-08-19T05:36:59;18.10;99.90
5415;DHT22;2730;51.512;7.504;2022-08-19T05:39:29;18.10;99.90
5415;DHT22;2730;51.512;7.504;2022-08-19T05:41:58;18.20;99.90
5415;DHT22;2730;51.512;7.504;2022-08-19T05:44:26;18.20;99.90
5415;DHT22;2730;51.512;7.504;2022-08-19T05:46:57;18.30;99.90
5415;DHT22;2730;51.512;7.504;2022-08-19T05:49:26;18.40;99.90
5415;DHT22;2730;51.512;7.504;2022-08-19T05:51:54;18.50;99.90
5415;DHT22;2730;51.512;7.504;2022-08-19T05:54:22;18.50;99.90
5415;DHT22;2730;51.512;7.504;2022-08-19T05:56:50;18.60;99.90
5415;DHT22;2730;51.512;7.504;2022-08-19T05:59:18;18.60;99.90
5415;DHT22;2730;51.512;7.504;2022-08-19T06:01:48;18.60;99.90
5415;DHT22;2730;51.512;7.504;2022-08-19T06:04:17;18.70;99.90
5415;DHT22;2730;51.512;7.504;2022-08-19T06:06:45;18.70;99.90
5415;DHT22;2730;51.512;7.504;2022-08-19T06:09:14;18.80;99.90
5415;DHT22;2730;51.512;7.504;2022-08-19T06:11:43;18.80;99.90
5415;DHT22;2730;51.512;7.504;2022-08-19T06:14:16;18.90;99.90
5415;DHT22;2730;51.512;7.504;2022-08-19T06:16:44;18.90;99.90
5415;DHT22;2730;51.512;7.504;2022-08-19T06:19:12;19.00;99.90
5415;DHT22;2730;51.512;7.504;2022-08-19T06:21:41;19.10;99.90
5415;DHT22;2730;51.512;7.504;2022-08-19T06:24:11;19.20;99.90
5415;DHT22;2730;51.512;7.504;2022-08-19T06:26:42;19.40;99.90
5415;DHT22;2730;51.512;7.504;2022-08-19T06:29:11;19.50;99.90
5415;DHT22;2730;51.512;7.504;2022-08-19T06:31:41;19.60;99.90
5415;DHT22;2730;51.512;7.504;2022-08-19T06:34:09;19.60;99.90
5415;DHT22;2730;51.512;7.504;2022-08-19T06:36:38;19.70;99.90
5415;DHT22;2730;51.512;7.504;2022-08-19T06:39:09;19.90;99.90
5415;DHT22;2730;51.512;7.504;2022-08-19T06:41:37;20.10;99.90
5415;DHT22;2730;51.512;7.504;2022-08-19T06:44:07;20.20;99.90
5415;DHT22;2730;51.512;7.504;2022-08-19T06:46:34;20.40;99.90
5415;DHT22;2730;51.512;7.504;2022-08-19T06:49:02;20.50;99.90
5415;DHT22;2730;51.512;7.504;2022-08-19T06:51:29;20.60;99.90
5415;DHT22;2730;51.512;7.504;2022-08-19T06:53:58;20.70;99.90
5415;DHT22;2730;51.512;7.504;2022-08-19T06:56:26;20.80;99.90
5415;DHT22;2730;51.512;7.504;2022-08-19T06:58:59;20.90;99.90
5415;DHT22;2730;51.512;7.504;2022-08-19T07:01:28;21.00;99.90
5415;DHT22;2730;51.512;7.504;2022-08-19T07:03:55;21.00;99.90
5415;DHT22;2730;51.512;7.504;2022-08-19T07:06:22;21.20;99.90
5415;DHT22;2730;51.512;7.504;2022-08-19T07:08:49;21.80;99.90
5415;DHT22;2730;51.512;7.504;2022-08-19T07:11:17;22.50;99.90
5415;DHT22;2730;51.512;7.504;2022-08-19T07:13:45;23.00;99.90
5415;DHT22;2730;51.512;7.504;2022-08-19T07:16:15;23.40;99.90
5415;DHT22;2730;51.512;7.504;2022-08-19T07:18:44;23.80;99.90
5415;DHT22;2730;51.512;7.504;2022-08-19T07:21:13;24.20;99.90
5415;DHT22;2730;51.512;7.504;2022-08-19T07:23:41;24.30;99.90
5415;DHT22;2730;51.512;7.504;2022-08-19T07:26:11;24.70;99.90
5415;DHT22;2730;51.512;7.504;2022-08-19T07:28:38;25.20;99.90
5415;DHT22;2730;51.512;7.504;2022-08-19T07:31:06;25.60;99.90
5415;DHT22;2730;51.512;7.504;2022-08-19T07:33:33;26.00;99.90
5415;DHT22;2730;51.512;7.504;2022-08-19T07:36:03;26.30;99.90
5415;DHT22;2730;51.512;7.504;2022-08-19T07:38:32;26.80;99.90
5415;DHT22;2730;51.512;7.504;2022-08-19T07:40:59;27.10;99.90
5415;DHT22;2730;51.512;7.504;2022-08-19T07:43:27;27.50;99.90
5415;DHT22;2730;51.512;7.504;2022-08-19T07:45:55;27.50;99.90
5415;DHT22;2730;51.512;7.504;2022-08-19T07:48:23;27.60;99.90
5415;DHT22;2730;51.512;7.504;2022-08-19T07:50:51;27.60;99.90
5415;DHT22;2730;51.512;7.504;2022-08-19T07:53:19;27.00;99.90
5415;DHT22;2730;51.512;7.504;2022-08-19T07:55:46;27.00;99.90
5415;DHT22;2730;51.512;7.504;2022-08-19T07:58:15;27.10;99.90
5415;DHT22;2730;51.512;7.504;2022-08-19T08:00:44;27.40;99.90
5415;DHT22;2730;51.512;7.504;2022-08-19T08:03:12;27.40;99.90
5415;DHT22;2730;51.512;7.504;2022-08-19T08:05:39;27.50;99.90
5415;DHT22;2730;51.512;7.504;2022-08-19T08:08:26;27.30;99.90
5415;DHT22;2730;51.512;7.504;2022-08-19T08:11:10;27.40;99.90
5415;DHT22;2730;51.512;7.504;2022-08-19T08:13:38;27.00;99.90
5415;DHT22;2730;51.512;7.504;2022-08-19T08:16:06;26.80;99.90
5415;DHT22;2730;51.512;7.504;2022-08-19T08:18:33;27.20;99.90
5415;DHT22;2730;51.512;7.504;2022-08-19T08:21:07;27.20;99.90
5415;DHT22;2730;51.512;7.504;2022-08-19T08:23:35;27.00;99.90
5415;DHT22;2730;51.512;7.504;2022-08-19T08:26:02;26.90;99.90
5415;DHT22;2730;51.512;7.504;2022-08-19T08:28:30;27.00;99.90
5415;DHT22;2730;51.512;7.504;2022-08-19T08:30:57;27.20;99.90
5415;DHT22;2730;51.512;7.504;2022-08-19T08:33:26;27.70;99.90
5415;DHT22;2730;51.512;7.504;2022-08-19T08:35:53;27.90;99.90
5415;DHT22;2730;51.512;7.504;2022-08-19T08:38:20;28.20;99.90
5415;DHT22;2730;51.512;7.504;2022-08-19T08:40:51;28.30;99.90
5415;DHT22;2730;51.512;7.504;2022-08-19T08:43:24;28.60;99.90
5415;DHT22;2730;51.512;7.504;2022-08-19T08:45:56;28.80;99.90
5415;DHT22;2730;51.512;7.504;2022-08-19T08:48:34;29.60;99.90
5415;DHT22;2730;51.512;7.504;2022-08-19T08:51:03;30.60;99.90
5415;DHT22;2730;51.512;7.504;2022-08-19T08:53:32;30.70;99.90
5415;DHT22;2730;51.512;7.504;2022-08-19T08:56:04;30.60;99.90
5415;DHT22;2730;51.512;7.504;2022-08-19T08:58:43;31.30;99.90
5415;DHT22;2730;51.512;7.504;2022-08-19T09:01:12;32.00;99.90
5415;DHT22;2730;51.512;7.504;2022-08-19T09:03:40;31.80;99.20
5415;DHT22;2730;51.512;7.504;2022-08-19T09:06:14;30.40;99.90
5415;DHT22;2730;51.512;7.504;2022-08-19T09:08:48;28.70;99.90
5415;DHT22;2730;51.512;7.504;2022-08-19T09:11:29;28.00;99.90
5415;DHT22;2730;51.512;7.504;2022-08-19T09:14:07;28.10;99.90
5415;DHT22;2730;51.512;7.504;2022-08-19T09:16:36;27.80;99.90
5415;DHT22;2730;51.512;7.504;2022-08-19T09:19:07;27.50;99.90
5415;DHT22;2730;51.512;7.504;2022-08-19T09:21:36;27.30;99.90
5415;DHT22;2730;51.512;7.504;2022-08-19T09:24:04;26.10;99.90
5415;DHT22;2730;51.512;7.504;2022-08-19T09:26:33;26.50;99.90
5415;DHT22;2730;51.512;7.504;2022-08-19T09:29:00;27.00;99.90
5415;DHT22;2730;51.512;7.504;2022-08-19T09:31:31;27.60;99.90
5415;DHT22;2730;51.512;7.504;2022-08-19T09:33:59;27.80;99.90
5415;DHT22;2730;51.512;7.504;2022-08-19T09:36:28;27.50;99.90
5415;DHT22;2730;51.512;7.504;2022-08-19T09:38:58;27.00;99.90
5415;DHT22;2730;51.512;7.504;2022-08-19T09:41:26;27.40;99.90
5415;DHT22;2730;51.512;7.504;2022-08-19T09:43:56;28.40;99.90
5415;DHT22;2730;51.512;7.504;2022-08-19T09:46:25;29.00;99.90
5415;DHT22;2730;51.512;7.504;2022-08-19T09:48:53;28.60;99.90
5415;DHT22;2730;51.512;7.504;2022-08-19T09:51:24;28.60;99.90
5415;DHT22;2730;51.512;7.504;2022-08-19T09:53:52;28.50;99.90
5415;DHT22;2730;51.512;7.504;2022-08-19T09:56:21;28.00;99.90
5415;DHT22;2730;51.512;7.504;2022-08-19T09:58:48;27.90;99.90
5415;DHT22;2730;51.512;7.504;2022-08-19T10:01:19;27.20;99.90
5415;DHT22;2730;51.512;7.504;2022-08-19T10:03:48;28.20;99.90
5415;DHT22;2730;51.512;7.504;2022-08-19T10:06:18;29.20;99.90
5415;DHT22;2730;51.512;7.504;2022-08-19T10:08:45;28.80;99.90
5415;DHT22;2730;51.512;7.504;2022-08-19T10:11:13;30.10;99.40
5415;DHT22;2730;51.512;7.504;2022-08-19T10:13:42;31.20;97.00
5415;DHT22;2730;51.512;7.504;2022-08-19T10:16:13;30.80;97.00
5415;DHT22;2730;51.512;7.504;2022-08-19T10:18:42;31.80;96.30
5415;DHT22;2730;51.512;7.504;2022-08-19T10:21:11;32.70;94.60
5415;DHT22;2730;51.512;7.504;2022-08-19T10:23:41;32.90;93.50
5415;DHT22;2730;51.512;7.504;2022-08-19T10:26:11;31.90;93.60
5415;DHT22;2730;51.512;7.504;2022-08-19T10:28:38;29.40;95.90
5415;DHT22;2730;51.512;7.504;2022-08-19T10:31:06;28.20;97.70
5415;DHT22;2730;51.512;7.504;2022-08-19T10:33:34;27.00;98.70
5415;DHT22;2730;51.512;7.504;2022-08-19T10:36:05;26.50;99.40
5415;DHT22;2730;51.512;7.504;2022-08-19T10:38:32;26.10;99.80
5415;DHT22;2730;51.512;7.504;2022-08-19T10:41:06;25.90;99.90
5415;DHT22;2730;51.512;7.504;2022-08-19T10:43:34;25.70;99.90
5415;DHT22;2730;51.512;7.504;2022-08-19T10:46:04;25.90;99.90
5415;DHT22;2730;51.512;7.504;2022-08-19T10:48:31;26.10;99.90
5415;DHT22;2730;51.512;7.504;2022-08-19T10:50:58;26.30;99.90
5415;DHT22;2730;51.512;7.504;2022-08-19T10:53:44;26.50;99.60
5415;DHT22;2730;51.512;7.504;2022-08-19T10:56:11;26.90;99.60
5415;DHT22;2730;51.512;7.504;2022-08-19T10:58:55;27.20;99.40
5415;DHT22;2730;51.512;7.504;2022-08-19T11:01:23;27.40;99.90
5415;DHT22;2730;51.512;7.504;2022-08-19T11:03:50;27.50;99.70
5415;DHT22;2730;51.512;7.504;2022-08-19T11:06:18;28.10;99.50
5415;DHT22;2730;51.512;7.504;2022-08-19T11:08:47;28.50;98.80
5415;DHT22;2730;51.512;7.504;2022-08-19T11:11:14;28.90;98.50
5415;DHT22;2730;51.512;7.504;2022-08-19T11:13:41;29.10;97.90
5415;DHT22;2730;51.512;7.504;2022-08-19T11:16:11;28.90;97.80
5415;DHT22;2730;51.512;7.504;2022-08-19T11:18:41;29.10;97.50
5415;DHT22;2730;51.512;7.504;2022-08-19T11:21:11;28.90;97.00
5415;DHT22;2730;51.512;7.504;2022-08-19T11:23:39;28.40;97.80
5415;DHT22;2730;51.512;7.504;2022-08-19T11:26:07;27.90;97.90
5415;DHT22;2730;51.512;7.504;2022-08-19T11:28:35;27.30;98.30
5415;DHT22;2730;51.512;7.504;2022-08-19T11:31:02;27.20;98.10
5415;DHT22;2730;51.512;7.504;2022-08-19T11:33:29;27.40;98.60
5415;DHT22;2730;51.512;7.504;2022-08-19T11:35:57;27.80;97.50
5415;DHT22;2730;51.512;7.504;2022-08-19T11:38:25;28.10;97.10
5415;DHT22;2730;51.512;7.504;2022-08-19T11:40:56;28.20;97.00
5415;DHT22;2730;51.512;7.504;2022-08-19T11:43:24;28.30;97.10
5415;DHT22;2730;51.512;7.504;2022-08-19T11:45:52;28.40;96.50
5415;DHT22;2730;51.512;7.504;2022-08-19T11:48:19;28.10;97.30
5415;DHT22;2730;51.512;7.504;2022-08-19T11:50:49;27.70;97.50
5415;DHT22;2730;51.512;7.504;2022-08-19T11:53:16;27.70;97.70
5415;DHT22;2730;51.512;7.504;2022-08-19T11:55:44;27.60;97.70
5415;DHT22;2730;51.512;7.504;2022-08-19T11:58:11;27.50;98.30
5415;DHT22;2730;51.512;7.504;2022-08-19T12:00:40;27.50;97.50
5415;DHT22;2730;51.512;7.504;2022-08-19T12:03:08;27.10;97.00
5415;DHT22;2730;51.512;7.504;2022-08-19T12:05:36;26.80;96.60
5415;DHT22;2730;51.512;7.504;2022-08-19T12:08:03;26.90;96.70
5415;DHT22;2730;51.512;7.504;2022-08-19T12:10:31;26.90;97.20
5415;DHT22;2730;51.512;7.504;2022-08-19T12:12:58;26.90;98.00
5415;DHT22;2730;51.512;7.504;2022-08-19T12:15:25;26.50;98.40
5415;DHT22;2730;51.512;7.504;2022-08-19T12:17:56;26.50;98.60
5415;DHT22;2730;51.512;7.504;2022-08-19T12:20:24;26.60;98.50
5415;DHT22;2730;51.512;7.504;2022-08-19T12:22:51;26.80;98.40
5415;DHT22;2730;51.512;7.504;2022-08-19T12:25:18;27.20;98.30
5415;DHT22;2730;51.512;7.504;2022-08-19T12:27:46;27.30;97.10
5415;DHT22;2730;51.512;7.504;2022-08-19T12:30:13;27.20;96.60
5415;DHT22;2730;51.512;7.504;2022-08-19T12:32:40;27.10;96.90
5415;DHT22;2730;51.512;7.504;2022-08-19T12:35:09;26.80;97.80
5415;DHT22;2730;51.512;7.504;2022-08-19T12:37:37;26.80;97.60
5415;DHT22;2730;51.512;7.504;2022-08-19T12:40:05;26.90;97.90
5415;DHT22;2730;51.512;7.504;2022-08-19T12:42:32;27.10;98.00
5415;DHT22;2730;51.512;7.504;2022-08-19T12:45:00;27.10;97.70
5415;DHT22;2730;51.512;7.504;2022-08-19T12:47:27;27.20;97.10
5415;DHT22;2730;51.512;7.504;2022-08-19T12:49:55;27.30;96.80
5415;DHT22;2730;51.512;7.504;2022-08-19T12:52:26;27.50;96.30
5415;DHT22;2730;51.512;7.504;2022-08-19T12:54:54;27.40;96.00
5415;DHT22;2730;51.512;7.504;2022-08-19T12:57:22;27.70;95.40
5415;DHT22;2730;51.512;7.504;2022-08-19T12:59:52;27.90;95.40
5415;DHT22;2730;51.512;7.504;2022-08-19T13:02:19;27.90;95.80
5415;DHT22;2730;51.512;7.504;2022-08-19T13:04:46;27.90;96.00
5415;DHT22;2730;51.512;7.504;2022-08-19T13:07:13;28.00;96.00
5415;DHT22;2730;51.512;7.504;2022-08-19T13:09:41;27.80;96.10
5415;DHT22;2730;51.512;7.504;2022-08-19T13:12:08;27.60;96.10
5415;DHT22;2730;51.512;7.504;2022-08-19T13:14:38;27.40;95.80
5415;DHT22;2730;51.512;7.504;2022-08-19T13:17:06;27.20;96.20
5415;DHT22;2730;51.512;7.504;2022-08-19T13:19:36;27.40;96.40
5415;DHT22;2730;51.512;7.504;2022-08-19T13:22:03;27.60;96.00
5415;DHT22;2730;51.512;7.504;2022-08-19T13:24:30;27.40;96.30
5415;DHT22;2730;51.512;7.504;2022-08-19T13:27:00;27.40;96.00
5415;DHT22;2730;51.512;7.504;2022-08-19T13:29:27;27.40;94.80
5415;DHT22;2730;51.512;7.504;2022-08-19T13:32:12;27.20;95.00
5415;DHT22;2730;51.512;7.504;2022-08-19T13:34:56;27.20;93.80
5415;DHT22;2730;51.512;7.504;2022-08-19T13:37:23;27.20;93.90
5415;DHT22;2730;51.512;7.504;2022-08-19T13:40:05;27.20;94.70
5415;DHT22;2730;51.512;7.504;2022-08-19T13:42:34;27.20;94.80
5415;DHT22;2730;51.512;7.504;2022-08-19T13:45:01;27.20;94.80
5415;DHT22;2730;51.512;7.504;2022-08-19T13:47:30;27.30;94.60
5415;DHT22;2730;51.512;7.504;2022-08-19T13:49:57;27.30;94.70
5415;DHT22;2730;51.512;7.504;2022-08-19T13:52:24;27.30;94.90
5415;DHT22;2730;51.512;7.504;2022-08-19T13:54:51;27.30;94.30
5415;DHT22;2730;51.512;7.504;2022-08-19T13:57:19;27.00;94.30
5415;DHT22;2730;51.512;7.504;2022-08-19T13:59:47;26.80;94.20
5415;DHT22;2730;51.512;7.504;2022-08-19T14:02:14;26.90;94.40
5415;DHT22;2730;51.512;7.504;2022-08-19T14:04:41;26.90;94.40
5415;DHT22;2730;51.512;7.504;2022-08-19T14:07:08;27.10;94.10
5415;DHT22;2730;51.512;7.504;2022-08-19T14:09:36;26.90;93.80
5415;DHT22;2730;51.512;7.504;2022-08-19T14:12:03;26.80;93.70
5415;DHT22;2730;51.512;7.504;2022-08-19T14:14:30;27.00;94.00
5415;DHT22;2730;51.512;7.504;2022-08-19T14:16:59;27.20;94.00
5415;DHT22;2730;51.512;7.504;2022-08-19T14:19:27;27.50;93.80
5415;DHT22;2730;51.512;7.504;2022-08-19T14:21:55;27.70;92.90
5415;DHT22;2730;51.512;7.504;2022-08-19T14:24:23;27.80;93.00
5415;DHT22;2730;51.512;7.504;2022-08-19T14:26:50;27.90;93.70
5415;DHT22;2730;51.512;7.504;2022-08-19T14:29:16;27.70;94.20
5415;DHT22;2730;51.512;7.504;2022-08-19T14:31:44;27.90;94.00
5415;DHT22;2730;51.512;7.504;2022-08-19T14:34:12;28.00;93.80
5415;DHT22;2730;51.512;7.504;2022-08-19T14:36:39;27.90;93.50
5415;DHT22;2730;51.512;7.504;2022-08-19T14:39:07;28.00;93.90
5415;DHT22;2730;51.512;7.504;2022-08-19T14:41:35;28.20;93.50
5415;DHT22;2730;51.512;7.504;2022-08-19T14:44:03;28.40;93.40
5415;DHT22;2730;51.512;7.504;2022-08-19T14:46:30;28.60;93.30
5415;DHT22;2730;51.512;7.504;2022-08-19T14:48:56;28.90;92.80
5415;DHT22;2730;51.512;7.504;2022-08-19T14:51:25;28.90;92.20
5415;DHT22;2730;51.512;7.504;2022-08-19T14:53:53;28.70;92.30
5415;DHT22;2730;51.512;7.504;2022-08-19T14:56:22;28.30;92.60
5415;DHT22;2730;51.512;7.504;2022-08-19T14:58:50;27.90;92.60
5415;DHT22;2730;51.512;7.504;2022-08-19T15:01:18;27.80;93.00
5415;DHT22;2730;51.512;7.504;2022-08-19T15:03:46;28.10;93.10
5415;DHT22;2730;51.512;7.504;2022-08-19T15:06:13;28.20;92.60
5415;DHT22;2730;51.512;7.504;2022-08-19T15:08:42;28.20;92.80
5415;DHT22;2730;51.512;7.504;2022-08-19T15:11:12;27.90;92.60
5415;DHT22;2730;51.512;7.504;2022-08-19T15:13:40;27.80;92.40
5415;DHT22;2730;51.512;7.504;2022-08-19T15:16:07;27.80;92.70
5415;DHT22;2730;51.512;7.504;2022-08-19T15:18:34;27.60;92.30
5415;DHT22;2730;51.512;7.504;2022-08-19T15:21:02;27.60;92.70
5415;DHT22;2730;51.512;7.504;2022-08-19T15:23:30;27.70;92.30
5415;DHT22;2730;51.512;7.504;2022-08-19T15:25:58;27.90;92.50
5415;DHT22;2730;51.512;7.504;2022-08-19T15:28:29;28.00;91.90
5415;DHT22;2730;51.512;7.504;2022-08-19T15:30:56;28.20;91.60
5415;DHT22;2730;51.512;7.504;2022-08-19T15:33:23;28.20;91.40
5415;DHT22;2730;51.512;7.504;2022-08-19T15:35:51;28.10;91.30
5415;DHT22;2730;51.512;7.504;2022-08-19T15:38:19;28.00;91.70
5415;DHT22;2730;51.512;7.504;2022-08-19T15:40:49;28.30;91.50
5415;DHT22;2730;51.512;7.504;2022-08-19T15:43:19;28.20;91.60
5415;DHT22;2730;51.512;7.504;2022-08-19T15:45:47;28.00;91.30
5415;DHT22;2730;51.512;7.504;2022-08-19T15:48:14;28.00;91.50
5415;DHT22;2730;51.512;7.504;2022-08-19T15:50:41;28.10;91.20
5415;DHT22;2730;51.512;7.504;2022-08-19T15:53:09;28.10;91.60
5415;DHT22;2730;51.512;7.504;2022-08-19T15:55:41;28.10;91.30
5415;DHT22;2730;51.512;7.504;2022-08-19T15:58:11;28.20;91.50
5415;DHT22;2730;51.512;7.504;2022-08-19T16:00:57;28.10;91.00
5415;DHT22;2730;51.512;7.504;2022-08-19T16:03:42;28.10;91.30
5415;DHT22;2730;51.512;7.504;2022-08-19T16:06:26;27.90;91.60
5415;DHT22;2730;51.512;7.504;2022-08-19T16:08:55;27.50;91.90
5415;DHT22;2730;51.512;7.504;2022-08-19T16:11:25;27.30;92.10
5415;DHT22;2730;51.512;7.504;2022-08-19T16:13:55;27.10;91.70
5415;DHT22;2730;51.512;7.504;2022-08-19T16:16:25;27.00;92.30
5415;DHT22;2730;51.512;7.504;2022-08-19T16:18:53;27.10;92.50
5415;DHT22;2730;51.512;7.504;2022-08-19T16:21:22;27.00;92.50
5415;DHT22;2730;51.512;7.504;2022-08-19T16:23:51;27.10;92.30
5415;DHT22;2730;51.512;7.504;2022-08-19T16:26:18;27.30;92.20
5415;DHT22;2730;51.512;7.504;2022-08-19T16:28:46;27.30;92.20
5415;DHT22;2730;51.512;7.504;2022-08-19T16:31:14;27.30;92.10
5415;DHT22;2730;51.512;7.504;2022-08-19T16:33:43;27.20;92.20
5415;DHT22;2730;51.512;7.504;2022-08-19T16:36:09;27.20;92.40
5415;DHT22;2730;51.512;7.504;2022-08-19T16:38:36;27.20;92.60
5415;DHT22;2730;51.512;7.504;2022-08-19T16:41:04;27.10;92.70
5415;DHT22;2730;51.512;7.504;2022-08-19T16:43:32;26.90;93.00
5415;DHT22;2730;51.512;7.504;2022-08-19T16:45:59;26.70;93.20
5415;DHT22;2730;51.512;7.504;2022-08-19T16:48:29;26.60;93.40
5415;DHT22;2730;51.512;7.504;2022-08-19T16:50:59;26.60;93.60
5415;DHT22;2730;51.512;7.504;2022-08-19T16:53:27;26.60;93.80
5415;DHT22;2730;51.512;7.504;2022-08-19T16:55:57;26.60;93.80
5415;DHT22;2730;51.512;7.504;2022-08-19T16:58:26;26.50;94.10
5415;DHT22;2730;51.512;7.504;2022-08-19T17:00:54;26.50;94.30
5415;DHT22;2730;51.512;7.504;2022-08-19T17:03:22;26.50;94.20
5415;DHT22;2730;51.512;7.504;2022-08-19T17:05:51;26.60;94.20
5415;DHT22;2730;51.512;7.504;2022-08-19T17:08:21;26.60;94.20
5415;DHT22;2730;51.512;7.504;2022-08-19T17:10:48;26.70;94.00
5415;DHT22;2730;51.512;7.504;2022-08-19T17:13:15;26.70;94.00
5415;DHT22;2730;51.512;7.504;2022-08-19T17:15:42;26.80;94.00
5415;DHT22;2730;51.512;7.504;2022-08-19T17:18:11;26.80;93.80
5415;DHT22;2730;51.512;7.504;2022-08-19T17:20:40;26.70;93.70
5415;DHT22;2730;51.512;7.504;2022-08-19T17:23:07;26.60;93.80
5415;DHT22;2730;51.512;7.504;2022-08-19T17:25:36;26.50;94.00
5415;DHT22;2730;51.512;7.504;2022-08-19T17:28:06;26.40;94.10
5415;DHT22;2730;51.512;7.504;2022-08-19T17:30:33;26.30;94.10
5415;DHT22;2730;51.512;7.504;2022-08-19T17:33:00;26.10;94.00
5415;DHT22;2730;51.512;7.504;2022-08-19T17:35:27;25.90;94.30
5415;DHT22;2730;51.512;7.504;2022-08-19T17:37:54;25.80;94.30
5415;DHT22;2730;51.512;7.504;2022-08-19T17:40:21;25.70;94.40
5415;DHT22;2730;51.512;7.504;2022-08-19T17:42:50;25.60;94.40
5415;DHT22;2730;51.512;7.504;2022-08-19T17:45:19;25.60;94.50
5415;DHT22;2730;51.512;7.504;2022-08-19T17:47:46;25.50;94.30
5415;DHT22;2730;51.512;7.504;2022-08-19T17:50:13;25.40;94.50
5415;DHT22;2730;51.512;7.504;2022-08-19T17:52:41;25.40;94.50
5415;DHT22;2730;51.512;7.504;2022-08-19T17:55:09;25.30;94.70
5415;DHT22;2730;51.512;7.504;2022-08-19T17:57:36;25.30;94.70
5415;DHT22;2730;51.512;7.504;2022-08-19T18:00:08;25.20;94.70
5415;DHT22;2730;51.512;7.504;2022-08-19T18:02:44;25.20;94.70
5415;DHT22;2730;51.512;7.504;2022-08-19T18:05:11;25.10;95.00
5415;DHT22;2730;51.512;7.504;2022-08-19T18:07:39;25.10;95.10
5415;DHT22;2730;51.512;7.504;2022-08-19T18:10:08;25.00;95.30
5415;DHT22;2730;51.512;7.504;2022-08-19T18:12:35;25.00;95.50
5415;DHT22;2730;51.512;7.504;2022-08-19T18:15:03;25.00;95.80
5415;DHT22;2730;51.512;7.504;2022-08-19T18:17:32;24.90;96.00
5415;DHT22;2730;51.512;7.504;2022-08-19T18:20:00;25.00;96.00
5415;DHT22;2730;51.512;7.504;2022-08-19T18:22:29;24.80;96.00
5415;DHT22;2730;51.512;7.504;2022-08-19T18:25:02;24.70;96.30
5415;DHT22;2730;51.512;7.504;2022-08-19T18:27:30;24.60;96.50
5415;DHT22;2730;51.512;7.504;2022-08-19T18:29:57;24.50;96.90
5415;DHT22;2730;51.512;7.504;2022-08-19T18:32:25;24.50;96.90
5415;DHT22;2730;51.512;7.504;2022-08-19T18:34:53;24.60;97.00
5415;DHT22;2730;51.512;7.504;2022-08-19T18:37:20;24.50;97.10
5415;DHT22;2730;51.512;7.504;2022-08-19T18:39:47;24.40;97.40
5415;DHT22;2730;51.512;7.504;2022-08-19T18:42:32;24.30;97.40
5415;DHT22;2730;51.512;7.504;2022-08-19T18:45:16;24.30;97.60
5415;DHT22;2730;51.512;7.504;2022-08-19T18:48:00;24.10;97.70
5415;DHT22;2730;51.512;7.504;2022-08-19T18:50:46;24.10;98.00
5415;DHT22;2730;51.512;7.504;2022-08-19T18:53:13;24.10;98.20
5415;DHT22;2730;51.512;7.504;2022-08-19T18:55:40;24.00;98.40
5415;DHT22;2730;51.512;7.504;2022-08-19T18:58:08;23.90;98.60
5415;DHT22;2730;51.512;7.504;2022-08-19T19:00:35;23.90;98.80
5415;DHT22;2730;51.512;7.504;2022-08-19T19:03:02;23.90;98.80
5415;DHT22;2730;51.512;7.504;2022-08-19T19:05:29;23.80;99.00
5415;DHT22;2730;51.512;7.504;2022-08-19T19:07:57;23.80;99.00
5415;DHT22;2730;51.512;7.504;2022-08-19T19:10:25;23.80;99.20
5415;DHT22;2730;51.512;7.504;2022-08-19T19:12:52;23.80;99.20
5415;DHT22;2730;51.512;7.504;2022-08-19T19:15:18;23.80;99.30
5415;DHT22;2730;51.512;7.504;2022-08-19T19:17:45;23.70;99.40
5415;DHT22;2730;51.512;7.504;2022-08-19T19:20:12;23.70;99.50
5415;DHT22;2730;51.512;7.504;2022-08-19T19:22:39;23.60;99.70
5415;DHT22;2730;51.512;7.504;2022-08-19T19:25:08;23.50;99.80
5415;DHT22;2730;51.512;7.504;2022-08-19T19:27:36;23.50;99.90
5415;DHT22;2730;51.512;7.504;2022-08-19T19:30:05;23.50;99.90
5415;DHT22;2730;51.512;7.504;2022-08-19T19:32:32;23.50;99.90
5415;DHT22;2730;51.512;7.504;2022-08-19T19:35:04;23.50;99.90
5415;DHT22;2730;51.512;7.504;2022-08-19T19:37:31;23.40;99.90
5415;DHT22;2730;51.512;7.504;2022-08-19T19:39:58;23.40;99.90
5415;DHT22;2730;51.512;7.504;2022-08-19T19:42:26;23.40;99.90
5415;DHT22;2730;51.512;7.504;2022-08-19T19:44:54;23.40;99.90
5415;DHT22;2730;51.512;7.504;2022-08-19T19:47:22;23.30;99.90
5415;DHT22;2730;51.512;7.504;2022-08-19T19:49:50;23.30;99.90
5415;DHT22;2730;51.512;7.504;2022-08-19T19:52:17;23.30;99.90
5415;DHT22;2730;51.512;7.504;2022-08-19T19:54:45;23.20;99.90
5415;DHT22;2730;51.512;7.504;2022-08-19T19:57:12;23.20;99.90
5415;DHT22;2730;51.512;7.504;2022-08-19T19:59:41;23.00;99.90
5415;DHT22;2730;51.512;7.504;2022-08-19T20:02:08;23.00;99.90
5415;DHT22;2730;51.512;7.504;2022-08-19T20:04:36;23.00;99.90
5415;DHT22;2730;51.512;7.504;2022-08-19T20:07:06;22.90;99.90
5415;DHT22;2730;51.512;7.504;2022-08-19T20:09:35;22.90;99.90
5415;DHT22;2730;51.512;7.504;2022-08-19T20:12:02;22.80;99.90
5415;DHT22;2730;51.512;7.504;2022-08-19T20:14:31;22.80;99.90
5415;DHT22;2730;51.512;7.504;2022-08-19T20:17:04;22.70;99.90
5415;DHT22;2730;51.512;7.504;2022-08-19T20:19:32;22.70;99.90
5415;DHT22;2730;51.512;7.504;2022-08-19T20:22:02;22.60;99.90
5415;DHT22;2730;51.512;7.504;2022-08-19T20:24:34;22.60;99.90
5415;DHT22;2730;51.512;7.504;2022-08-19T20:27:04;22.60;99.90
5415;DHT22;2730;51.512;7.504;2022-08-19T20:29:31;22.50;99.90
5415;DHT22;2730;51.512;7.504;2022-08-19T20:31:58;22.50;99.90
5415;DHT22;2730;51.512;7.504;2022-08-19T20:34:26;22.50;99.90
5415;DHT22;2730;51.512;7.504;2022-08-19T20:36:53;22.40;99.90
5415;DHT22;2730;51.512;7.504;2022-08-19T20:39:20;22.40;99.90
5415;DHT22;2730;51.512;7.504;2022-08-19T20:41:47;22.30;99.90
5415;DHT22;2730;51.512;7.504;2022-08-19T20:44:14;22.40;99.90
5415;DHT22;2730;51.512;7.504;2022-08-19T20:46:41;22.40;99.90
5415;DHT22;2730;51.512;7.504;2022-08-19T20:49:08;22.50;99.90
5415;DHT22;2730;51.512;7.504;2022-08-19T20:51:36;22.50;99.90
5415;DHT22;2730;51.512;7.504;2022-08-19T20:54:03;22.50;99.90
5415;DHT22;2730;51.512;7.504;2022-08-19T20:56:30;22.50;99.90
5415;DHT22;2730;51.512;7.504;2022-08-19T20:58:57;22.50;99.90
5415;DHT22;2730;51.512;7.504;2022-08-19T21:01:24;22.50;99.90
5415;DHT22;2730;51.512;7.504;2022-08-19T21:03:51;22.50;99.90
5415;DHT22;2730;51.512;7.504;2022-08-19T21:06:21;22.50;99.90
5415;DHT22;2730;51.512;7.504;2022-08-19T21:08:49;22.50;99.90
5415;DHT22;2730;51.512;7.504;2022-08-19T21:11:16;22.60;99.90
5415;DHT22;2730;51.512;7.504;2022-08-19T21:13:43;22.50;99.90